Aurora, New York
Current Conditions -  °F | °C
As of 6:53 PM on Saturday 25 Oct 2014 (Local Time) from KPEO Reporting Station
Few Clouds Few Clouds  
Wind Chill: 16°   Ceiling: Unl
Heat Index: 16°   Visibility: 10mi
Dew Point:   Wind: 14mph
Humidity: 64%   Direction: 270°W
Pressure: 29.61"   Gusts: 25mph
Location:  42.75°N, 76.7°W
Report Text: KPEO 252253Z AUTO 27012G22KT 10SM FEW040 16/09 A2961 RMK AO2 SLP026 T01560089
Loading
Personal Weather Stations






























Interactive Weather Map
Tropical Storm Tracking
New forecast layout! Learn more

10-Day Weather Forecast

Advertisements
Track Severe Weather on mobile